Time;durP1;ratioP1;P1;durP2;ratioP2;P2;SDS_P1;SDS_P2;PMS_P1;PMS_P2;Temp;Humidity;BMP_temperature;BMP_pressure;BME280_temperature;BME280_humidity;BME280_pressure;Samples;Min_cycle;Max_cycle;Signal;HPM_P1;HPM_P2
2024/03/08 00:02:03;;;;;;;22.77;13.15;;;;;;;;;;4997476;28;20026;-76
2024/03/08 00:04:28;;;;;;;26.83;15.25;;;;;;;;;;4994378;28;20038;-76
2024/03/08 00:06:53;;;;;;;21.83;13.45;;;;;;;;;;4994910;28;20106;-76
2024/03/08 00:09:18;;;;;;;23.25;13.65;;;;;;;;;;4994643;28;20030;-75
2024/03/08 00:11:44;;;;;;;24.38;13.60;;;;;;;;;;4993787;28;20034;-76
2024/03/08 00:14:09;;;;;;;21.33;13.55;;;;;;;;;;4992785;28;20026;-75
2024/03/08 00:16:35;;;;;;;25.00;14.25;;;;;;;;;;4995743;28;20435;-76
2024/03/08 00:19:00;;;;;;;18.55;11.98;;;;;;;;;;4995878;28;20151;-76
2024/03/08 00:21:26;;;;;;;23.25;13.55;;;;;;;;;;4993779;28;20093;-76
2024/03/08 00:23:53;;;;;;;22.60;13.48;;;;;;;;;;4993851;28;20410;-76
2024/03/08 00:26:19;;;;;;;24.50;14.38;;;;;;;;;;4996637;28;20030;-76
2024/03/08 00:28:44;;;;;;;20.92;14.13;;;;;;;;;;4994054;28;20049;-76
2024/03/08 00:31:09;;;;;;;21.83;13.63;;;;;;;;;;4993934;28;20034;-75
2024/03/08 00:33:34;;;;;;;23.80;14.25;;;;;;;;;;4993750;28;20041;-75
2024/03/08 00:35:59;;;;;;;21.48;13.48;;;;;;;;;;4999076;28;20479;-76
2024/03/08 00:38:25;;;;;;;24.40;13.32;;;;;;;;;;4994485;28;20038;-76
2024/03/08 00:40:50;;;;;;;23.90;14.48;;;;;;;;;;4993664;28;20049;-76
2024/03/08 00:43:15;;;;;;;23.77;13.13;;;;;;;;;;4993041;28;20046;-75
2024/03/08 00:45:42;;;;;;;22.80;13.38;;;;;;;;;;4993440;28;20402;-76
2024/03/08 00:48:08;;;;;;;25.23;14.90;;;;;;;;;;4993847;28;20384;-75
2024/03/08 00:50:33;;;;;;;26.70;14.60;;;;;;;;;;4994337;28;20057;-76
2024/03/08 00:52:59;;;;;;;25.67;14.10;;;;;;;;;;4991216;28;20097;-76
2024/03/08 00:55:25;;;;;;;26.67;15.05;;;;;;;;;;4993673;28;20084;-76
2024/03/08 00:57:50;;;;;;;25.67;14.02;;;;;;;;;;4992396;28;20073;-76
2024/03/08 01:00:16;;;;;;;24.10;13.50;;;;;;;;;;4993251;28;20498;-76
2024/03/08 01:02:42;;;;;;;24.58;14.15;;;;;;;;;;4994216;28;20023;-76
2024/03/08 01:05:07;;;;;;;23.63;14.20;;;;;;;;;;4998258;28;20025;-76
2024/03/08 01:07:35;;;;;;;22.90;13.10;;;;;;;;;;4994092;28;20081;-76
2024/03/08 01:10:03;;;;;;;25.88;14.32;;;;;;;;;;4994048;28;20034;-76
2024/03/08 01:12:29;;;;;;;25.25;14.68;;;;;;;;;;4993313;28;20418;-76
2024/03/08 01:14:54;;;;;;;26.98;14.15;;;;;;;;;;4992810;28;20042;-76
2024/03/08 01:17:20;;;;;;;25.92;14.32;;;;;;;;;;4996605;28;20035;-75
2024/03/08 01:19:45;;;;;;;25.13;13.57;;;;;;;;;;4994899;28;20041;-75
2024/03/08 01:22:10;;;;;;;25.60;14.27;;;;;;;;;;4992752;28;20037;-75
2024/03/08 01:24:36;;;;;;;25.80;14.48;;;;;;;;;;4992945;28;20491;-75
2024/03/08 01:27:02;;;;;;;25.07;13.40;;;;;;;;;;4991457;28;20031;-75
2024/03/08 01:29:29;;;;;;;25.00;13.73;;;;;;;;;;4992981;28;20435;-76
2024/03/08 01:31:54;;;;;;;25.63;13.83;;;;;;;;;;4995096;28;20031;-75
2024/03/08 01:34:19;;;;;;;25.33;14.40;;;;;;;;;;4991577;28;20474;-76
2024/03/08 01:36:45;;;;;;;28.87;16.20;;;;;;;;;;4994400;28;20025;-76
2024/03/08 01:39:10;;;;;;;27.17;15.10;;;;;;;;;;4992903;28;20030;-76
2024/03/08 01:41:36;;;;;;;26.97;14.33;;;;;;;;;;4992382;28;20077;-75
2024/03/08 01:44:01;;;;;;;23.77;13.67;;;;;;;;;;4990985;28;20089;-76
2024/03/08 01:46:28;;;;;;;22.98;12.93;;;;;;;;;;4995057;28;20022;-76
2024/03/08 01:48:54;;;;;;;25.43;15.03;;;;;;;;;;4991188;28;20117;-76
2024/03/08 01:51:19;;;;;;;24.50;13.20;;;;;;;;;;4992231;28;20114;-76
2024/03/08 01:53:45;;;;;;;24.75;14.45;;;;;;;;;;4992424;28;20030;-75
2024/03/08 01:56:12;;;;;;;24.47;14.30;;;;;;;;;;4995817;28;20546;-75
2024/03/08 01:58:38;;;;;;;26.57;14.80;;;;;;;;;;4992241;28;20065;-75
2024/03/08 02:01:04;;;;;;;24.30;14.33;;;;;;;;;;4992270;28;20065;-75
2024/03/08 02:03:31;;;;;;;24.57;14.60;;;;;;;;;;4992152;28;20532;-75
2024/03/08 02:05:58;;;;;;;28.63;16.13;;;;;;;;;;4992036;28;20030;-75
2024/03/08 02:08:24;;;;;;;25.10;15.00;;;;;;;;;;4992247;28;20030;-75
2024/03/08 02:10:49;;;;;;;26.73;13.97;;;;;;;;;;4992097;28;20514;-75
2024/03/08 02:13:14;;;;;;;24.67;14.67;;;;;;;;;;4996824;28;20030;-75
2024/03/08 02:15:56;;;;;;;26.60;14.90;;;;;;;;;;4993123;28;20037;-76
2024/03/08 02:18:21;;;;;;;28.47;16.43;;;;;;;;;;4990964;28;20037;-76
2024/03/08 02:20:47;;;;;;;24.90;13.93;;;;;;;;;;4991818;28;20034;-76
2024/03/08 02:23:13;;;;;;;23.90;14.50;;;;;;;;;;4993672;28;20033;-76
2024/03/08 02:25:39;;;;;;;28.57;15.83;;;;;;;;;;4993910;28;20557;-76
2024/03/08 02:28:04;;;;;;;24.67;14.43;;;;;;;;;;4991801;28;20142;-75
2024/03/08 02:30:29;;;;;;;22.03;13.40;;;;;;;;;;4991884;28;20057;-76
2024/03/08 02:32:55;;;;;;;28.23;15.87;;;;;;;;;;4991362;28;20039;-76
2024/03/08 02:35:20;;;;;;;32.17;16.27;;;;;;;;;;4992667;28;20435;-75
2024/03/08 02:37:47;;;;;;;22.47;13.60;;;;;;;;;;4993752;28;20034;-76
2024/03/08 02:40:12;;;;;;;28.43;15.30;;;;;;;;;;4991838;28;20025;-75
2024/03/08 02:42:38;;;;;;;29.13;16.67;;;;;;;;;;4991311;28;20033;-75
2024/03/08 02:45:05;;;;;;;29.13;16.43;;;;;;;;;;4991257;28;20117;-75
2024/03/08 02:47:31;;;;;;;26.47;16.20;;;;;;;;;;4991933;28;20441;-75
2024/03/08 02:49:56;;;;;;;28.27;15.70;;;;;;;;;;4990143;28;20181;-76
2024/03/08 02:52:21;;;;;;;28.00;15.40;;;;;;;;;;4991091;28;20101;-76
2024/03/08 02:54:47;;;;;;;27.80;15.90;;;;;;;;;;4991041;28;20039;-76
2024/03/08 02:57:14;;;;;;;29.80;16.70;;;;;;;;;;4993490;28;20105;-76
2024/03/08 02:59:39;;;;;;;30.23;17.57;;;;;;;;;;4992163;28;20033;-76
2024/03/08 03:02:06;;;;;;;30.87;17.63;;;;;;;;;;4990844;28;20026;-76
2024/03/08 03:04:33;;;;;;;32.50;18.77;;;;;;;;;;4991095;28;20022;-76
2024/03/08 03:06:58;;;;;;;30.70;17.53;;;;;;;;;;4991852;28;20092;-76
2024/03/08 03:09:27;;;;;;;36.90;20.60;;;;;;;;;;4994198;28;20446;-76
2024/03/08 03:11:52;;;;;;;37.40;18.80;;;;;;;;;;4988854;28;20038;-76
2024/03/08 03:14:17;;;;;;;32.13;18.37;;;;;;;;;;4990800;28;20442;-76
2024/03/08 03:16:43;;;;;;;28.60;17.60;;;;;;;;;;4990787;28;20415;-76
2024/03/08 03:19:09;;;;;;;28.33;16.60;;;;;;;;;;4988868;28;20034;-76
2024/03/08 03:21:35;;;;;;;32.63;17.90;;;;;;;;;;4990281;28;20033;-76
2024/03/08 03:24:01;;;;;;;30.60;15.90;;;;;;;;;;4991666;28;20061;-76
2024/03/08 03:26:26;;;;;;;34.00;18.07;;;;;;;;;;4991299;28;20045;-76
2024/03/08 03:28:51;;;;;;;32.83;18.77;;;;;;;;;;4990815;28;20372;-76
2024/03/08 03:31:18;;;;;;;38.87;22.50;;;;;;;;;;5006749;28;20022;-76
2024/03/08 03:33:43;;;;;;;37.50;21.77;;;;;;;;;;4990868;28;20064;-76
2024/03/08 03:36:09;;;;;;;32.77;18.87;;;;;;;;;;4994006;28;20463;-75
2024/03/08 03:38:35;;;;;;;38.73;21.57;;;;;;;;;;4990805;28;20041;-76
2024/03/08 03:41:09;;;;;;;44.67;22.30;;;;;;;;;;4989930;28;20102;-76
2024/03/08 03:43:34;;;;;;;35.07;20.93;;;;;;;;;;4983326;28;20033;-76
2024/03/08 03:46:00;;;;;;;31.73;19.33;;;;;;;;;;4983306;28;20038;-75
2024/03/08 03:48:25;;;;;;;33.73;18.63;;;;;;;;;;4986197;28;20026;-76
2024/03/08 03:50:51;;;;;;;32.83;18.33;;;;;;;;;;4995075;28;20026;-76
2024/03/08 03:53:16;;;;;;;34.27;19.70;;;;;;;;;;4990792;28;20467;-76
2024/03/08 03:55:41;;;;;;;35.13;19.73;;;;;;;;;;4993286;28;20403;-76
2024/03/08 03:58:06;;;;;;;30.37;18.50;;;;;;;;;;4990893;28;20029;-76
2024/03/08 04:00:32;;;;;;;36.97;18.90;;;;;;;;;;4990408;28;20054;-76
2024/03/08 04:03:00;;;;;;;35.90;19.57;;;;;;;;;;4990559;28;20038;-76
2024/03/08 04:05:25;;;;;;;32.00;16.90;;;;;;;;;;4986984;28;20029;-76
2024/03/08 04:07:51;;;;;;;31.43;18.70;;;;;;;;;;4990255;28;20027;-76
2024/03/08 04:10:16;;;;;;;33.43;19.37;;;;;;;;;;4990480;28;20051;-76
2024/03/08 04:12:41;;;;;;;35.20;19.50;;;;;;;;;;4990127;28;20038;-75
2024/03/08 04:15:07;;;;;;;39.40;20.13;;;;;;;;;;4990351;28;20046;-75
2024/03/08 04:17:32;;;;;;;34.23;20.57;;;;;;;;;;4991741;28;20026;-76
2024/03/08 04:19:57;;;;;;;40.80;22.23;;;;;;;;;;4990071;28;20128;-76
2024/03/08 04:22:23;;;;;;;37.03;20.97;;;;;;;;;;4989920;28;20034;-76
2024/03/08 04:24:48;;;;;;;38.43;22.30;;;;;;;;;;4989831;28;20035;-76
2024/03/08 04:27:14;;;;;;;41.50;21.37;;;;;;;;;;4992790;28;20030;-76
2024/03/08 04:29:39;;;;;;;37.67;21.57;;;;;;;;;;4992221;28;20022;-76
2024/03/08 04:32:06;;;;;;;34.30;19.30;;;;;;;;;;4992215;28;20452;-77
2024/03/08 04:34:31;;;;;;;41.47;24.30;;;;;;;;;;4990376;28;20153;-76
2024/03/08 04:36:57;;;;;;;46.27;24.67;;;;;;;;;;4995842;28;20113;-76
2024/03/08 04:39:22;;;;;;;34.93;21.23;;;;;;;;;;4990333;28;20066;-76
2024/03/08 04:41:48;;;;;;;41.00;22.77;;;;;;;;;;4992292;28;20104;-76
2024/03/08 04:44:13;;;;;;;33.77;19.83;;;;;;;;;;5006314;28;20051;-76
2024/03/08 04:46:39;;;;;;;43.73;19.57;;;;;;;;;;4992497;28;20672;-76
2024/03/08 04:49:04;;;;;;;37.57;21.17;;;;;;;;;;4992334;28;20070;-76
2024/03/08 04:51:30;;;;;;;38.23;22.10;;;;;;;;;;4993124;28;20032;-76
2024/03/08 04:53:56;;;;;;;37.87;20.70;;;;;;;;;;4984478;28;20642;-76
2024/03/08 04:56:22;;;;;;;39.83;21.23;;;;;;;;;;5004693;28;20062;-76
2024/03/08 04:58:47;;;;;;;36.53;20.53;;;;;;;;;;4988896;28;20190;-77
2024/03/08 05:01:12;;;;;;;38.83;21.70;;;;;;;;;;4991855;28;20031;-76
2024/03/08 05:03:38;;;;;;;37.43;20.90;;;;;;;;;;4993965;28;20092;-76
2024/03/08 05:06:04;;;;;;;39.20;22.90;;;;;;;;;;4993727;28;20075;-77
2024/03/08 05:08:29;;;;;;;43.03;23.60;;;;;;;;;;4996979;28;20104;-76
2024/03/08 05:10:54;;;;;;;40.87;24.17;;;;;;;;;;4992952;28;20088;-77
2024/03/08 05:13:19;;;;;;;44.90;26.10;;;;;;;;;;4992586;28;20030;-76
2024/03/08 05:15:47;;;;;;;45.57;24.90;;;;;;;;;;4994911;28;20042;-76
2024/03/08 05:18:14;;;;;;;44.17;24.77;;;;;;;;;;4992349;28;20116;-76
2024/03/08 05:20:41;;;;;;;45.70;24.67;;;;;;;;;;4992994;28;20030;-76
2024/03/08 05:23:06;;;;;;;42.67;23.13;;;;;;;;;;4992414;28;20080;-76
2024/03/08 05:25:32;;;;;;;45.07;23.03;;;;;;;;;;4997365;28;20037;-76
2024/03/08 05:27:57;;;;;;;46.97;25.40;;;;;;;;;;4992585;28;20085;-76
2024/03/08 05:30:23;;;;;;;46.33;24.63;;;;;;;;;;4992886;28;20097;-76
2024/03/08 05:32:48;;;;;;;39.53;23.43;;;;;;;;;;4993185;28;20042;-76
2024/03/08 05:35:16;;;;;;;49.27;27.07;;;;;;;;;;4992642;28;20062;-76
2024/03/08 05:37:42;;;;;;;51.73;28.40;;;;;;;;;;4993765;28;20449;-76
2024/03/08 05:40:09;;;;;;;47.83;25.77;;;;;;;;;;4992506;28;20045;-76
2024/03/08 05:42:34;;;;;;;41.70;23.67;;;;;;;;;;4990696;28;20480;-76
2024/03/08 05:45:00;;;;;;;42.33;24.93;;;;;;;;;;4991794;28;20026;-76
2024/03/08 05:47:25;;;;;;;47.27;25.50;;;;;;;;;;4992451;28;20502;-76
2024/03/08 05:49:53;;;;;;;46.33;25.70;;;;;;;;;;4992251;28;20033;-76
2024/03/08 05:52:18;;;;;;;41.80;24.47;;;;;;;;;;4990647;28;20072;-76
2024/03/08 05:54:45;;;;;;;47.73;26.77;;;;;;;;;;4990655;28;20514;-76
2024/03/08 05:57:10;;;;;;;40.70;22.93;;;;;;;;;;4994751;28;20124;-76
2024/03/08 05:59:36;;;;;;;47.50;27.30;;;;;;;;;;4996013;28;20101;-76
2024/03/08 06:02:01;;;;;;;41.20;23.40;;;;;;;;;;4991766;28;20042;-76
2024/03/08 06:04:27;;;;;;;48.13;26.23;;;;;;;;;;4991751;28;20030;-76
2024/03/08 06:06:55;;;;;;;42.77;23.47;;;;;;;;;;4987954;28;20037;-76
2024/03/08 06:09:22;;;;;;;41.80;24.30;;;;;;;;;;4992162;28;20035;-76
2024/03/08 06:11:48;;;;;;;44.57;23.53;;;;;;;;;;4990350;28;20038;-76
2024/03/08 06:14:15;;;;;;;42.53;23.00;;;;;;;;;;4991305;28;20514;-76
2024/03/08 06:16:40;;;;;;;43.00;22.77;;;;;;;;;;4993198;28;20435;-76
2024/03/08 06:19:05;;;;;;;42.97;25.27;;;;;;;;;;4992202;28;20077;-76
2024/03/08 06:21:32;;;;;;;43.50;24.50;;;;;;;;;;4993716;28;20070;-76
2024/03/08 06:23:57;;;;;;;39.17;22.00;;;;;;;;;;4993948;28;20033;-76
2024/03/08 06:26:23;;;;;;;43.03;24.13;;;;;;;;;;4993473;28;20022;-76
2024/03/08 06:28:48;;;;;;;41.50;24.50;;;;;;;;;;4990658;28;20518;-76
2024/03/08 06:31:14;;;;;;;43.60;24.67;;;;;;;;;;4988291;28;20490;-76
2024/03/08 06:33:40;;;;;;;42.53;24.33;;;;;;;;;;4991386;28;20044;-76
2024/03/08 06:36:05;;;;;;;49.67;25.90;;;;;;;;;;4993521;28;20034;-75
2024/03/08 06:38:30;;;;;;;48.43;25.47;;;;;;;;;;4993058;28;20046;-76
2024/03/08 06:40:55;;;;;;;45.00;25.70;;;;;;;;;;4991263;28;20054;-76
2024/03/08 06:43:21;;;;;;;45.35;24.75;;;;;;;;;;4990501;28;20437;-76
2024/03/08 06:45:49;;;;;;;42.77;25.77;;;;;;;;;;4991343;28;20034;-76
2024/03/08 06:48:16;;;;;;;41.10;23.83;;;;;;;;;;4990208;28;20390;-76
2024/03/08 06:50:42;;;;;;;41.50;22.07;;;;;;;;;;4996352;28;20026;-76
2024/03/08 06:53:07;;;;;;;43.50;24.83;;;;;;;;;;4990850;28;20034;-75
2024/03/08 06:55:32;;;;;;;45.47;25.25;;;;;;;;;;4993049;28;20041;-75
2024/03/08 06:57:58;;;;;;;42.93;23.17;;;;;;;;;;4992620;28;20046;-76
2024/03/08 07:00:26;;;;;;;42.47;23.77;;;;;;;;;;4991113;28;20131;-76
2024/03/08 07:02:53;;;;;;;42.30;23.15;;;;;;;;;;4990797;28;20136;-76
2024/03/08 07:05:18;;;;;;;43.75;23.88;;;;;;;;;;4996169;28;20043;-76
2024/03/08 07:07:44;;;;;;;42.03;26.05;;;;;;;;;;4992183;28;20044;-76
2024/03/08 07:10:14;;;;;;;47.05;28.20;;;;;;;;;;4990758;28;20116;-76
2024/03/08 07:12:39;;;;;;;45.58;24.75;;;;;;;;;;4990609;28;20506;-76
2024/03/08 07:15:05;;;;;;;39.55;24.02;;;;;;;;;;4991489;28;20092;-76
2024/03/08 07:17:31;;;;;;;41.78;23.63;;;;;;;;;;4991287;28;20046;-76
2024/03/08 07:19:59;;;;;;;44.05;24.48;;;;;;;;;;4990919;28;20092;-75
2024/03/08 07:22:24;;;;;;;51.50;26.23;;;;;;;;;;4989172;28;20552;-76
2024/03/08 07:25:10;;;;;;;42.15;24.15;;;;;;;;;;4990444;28;20109;-76
2024/03/08 07:27:36;;;;;;;44.67;26.48;;;;;;;;;;4990182;28;20022;-75
2024/03/08 07:30:02;;;;;;;43.22;25.40;;;;;;;;;;4990229;28;20042;-76
2024/03/08 07:32:29;;;;;;;49.42;28.42;;;;;;;;;;4990816;28;20033;-76
2024/03/08 07:34:55;;;;;;;40.55;23.55;;;;;;;;;;4988918;28;20030;-77
2024/03/08 07:37:20;;;;;;;45.58;24.67;;;;;;;;;;4995101;28;20030;-76
2024/03/08 07:39:46;;;;;;;44.58;24.60;;;;;;;;;;4989728;28;20118;-76
2024/03/08 07:42:11;;;;;;;46.33;26.02;;;;;;;;;;4989629;28;20026;-77
2024/03/08 07:44:37;;;;;;;42.47;24.42;;;;;;;;;;4987781;28;20030;-77
2024/03/08 07:47:03;;;;;;;46.72;26.25;;;;;;;;;;4990696;28;20030;-77
2024/03/08 07:49:28;;;;;;;44.00;25.15;;;;;;;;;;4988920;28;20455;-76
2024/03/08 07:51:54;;;;;;;41.72;25.60;;;;;;;;;;4985034;28;20085;-77
2024/03/08 07:54:20;;;;;;;44.38;25.55;;;;;;;;;;4988147;28;20545;-76
2024/03/08 07:56:45;;;;;;;43.75;24.23;;;;;;;;;;4990172;28;20112;-76
2024/03/08 07:59:11;;;;;;;50.05;28.73;;;;;;;;;;4989393;28;20042;-76
2024/03/08 08:01:37;;;;;;;45.75;28.08;;;;;;;;;;4986550;28;20026;-76
2024/03/08 08:04:02;;;;;;;46.17;27.63;;;;;;;;;;4990971;28;20105;-77
2024/03/08 08:06:28;;;;;;;47.42;26.52;;;;;;;;;;4988238;28;20081;-76
2024/03/08 08:08:53;;;;;;;45.17;27.85;;;;;;;;;;4988040;28;20036;-77
2024/03/08 08:11:20;;;;;;;47.08;27.35;;;;;;;;;;4993554;28;20034;-77
2024/03/08 08:13:45;;;;;;;54.33;30.20;;;;;;;;;;4993830;28;20038;-76
2024/03/08 08:16:10;;;;;;;49.45;29.55;;;;;;;;;;4997976;28;20454;-76
2024/03/08 08:18:36;;;;;;;47.42;28.33;;;;;;;;;;4993253;28;21903;-76
2024/03/08 08:21:01;;;;;;;45.50;27.15;;;;;;;;;;4994221;28;20057;-77
2024/03/08 08:23:26;;;;;;;44.55;26.77;;;;;;;;;;4994428;28;20109;-76
2024/03/08 08:25:52;;;;;;;43.95;26.98;;;;;;;;;;4985560;28;20034;-77
2024/03/08 08:28:17;;;;;;;48.05;26.90;;;;;;;;;;4994219;28;20038;-76
2024/03/08 08:30:43;;;;;;;50.58;31.60;;;;;;;;;;4991828;28;20042;-76
2024/03/08 08:33:09;;;;;;;48.40;28.83;;;;;;;;;;4992821;28;20121;-77
2024/03/08 08:35:34;;;;;;;42.92;27.40;;;;;;;;;;4993339;28;20054;-76
2024/03/08 08:37:59;;;;;;;43.33;27.05;;;;;;;;;;4994645;28;20403;-76
2024/03/08 08:40:25;;;;;;;46.95;27.42;;;;;;;;;;4992286;28;20031;-76
2024/03/08 08:42:50;;;;;;;46.67;25.05;;;;;;;;;;4992879;28;20026;-76
2024/03/08 08:45:17;;;;;;;44.58;24.50;;;;;;;;;;4993828;28;20027;-76
2024/03/08 08:47:42;;;;;;;47.90;30.13;;;;;;;;;;4992622;28;20018;-76
2024/03/08 08:50:11;;;;;;;47.58;27.05;;;;;;;;;;4990600;28;20030;-77
2024/03/08 08:52:37;;;;;;;86.35;45.45;;;;;;;;;;4992931;28;20022;-76
2024/03/08 08:55:04;;;;;;;87.25;46.53;;;;;;;;;;4990699;28;20033;-77
2024/03/08 08:57:30;;;;;;;91.50;48.47;;;;;;;;;;4996019;28;20589;-76
2024/03/08 08:59:55;;;;;;;76.13;42.85;;;;;;;;;;4992214;28;20510;-75
2024/03/08 09:02:21;;;;;;;81.15;45.97;;;;;;;;;;4987661;28;20015;-76
2024/03/08 09:04:47;;;;;;;85.88;46.35;;;;;;;;;;4995521;28;20034;-76
2024/03/08 09:07:13;;;;;;;78.18;44.13;;;;;;;;;;4994182;28;20036;-77
2024/03/08 09:09:38;;;;;;;77.30;43.17;;;;;;;;;;4991329;28;20042;-76
2024/03/08 09:12:04;;;;;;;51.50;31.02;;;;;;;;;;4992407;28;20034;-77
2024/03/08 09:14:29;;;;;;;42.22;25.35;;;;;;;;;;4993096;28;20026;-77
2024/03/08 09:16:55;;;;;;;45.55;25.75;;;;;;;;;;4994596;28;20046;-77
2024/03/08 09:19:20;;;;;;;44.25;26.55;;;;;;;;;;4992316;28;20044;-76
2024/03/08 09:21:45;;;;;;;39.70;24.48;;;;;;;;;;4992420;28;20062;-77
2024/03/08 09:24:12;;;;;;;44.58;27.35;;;;;;;;;;4992604;28;20391;-75
2024/03/08 09:26:37;;;;;;;46.65;27.17;;;;;;;;;;4999187;28;20036;-76
2024/03/08 09:29:02;;;;;;;39.00;23.65;;;;;;;;;;4992901;28;20519;-77
2024/03/08 09:31:28;;;;;;;39.55;23.60;;;;;;;;;;4993600;28;20026;-76
2024/03/08 09:33:53;;;;;;;43.42;25.90;;;;;;;;;;4992571;28;20100;-77
2024/03/08 09:36:19;;;;;;;43.63;26.83;;;;;;;;;;4993629;28;20045;-76
2024/03/08 09:38:44;;;;;;;45.40;25.83;;;;;;;;;;4995120;28;20237;-76
2024/03/08 09:41:10;;;;;;;48.10;29.73;;;;;;;;;;4992655;28;20069;-77
2024/03/08 09:43:35;;;;;;;45.15;26.98;;;;;;;;;;4991730;28;20026;-76
2024/03/08 09:46:01;;;;;;;40.08;25.50;;;;;;;;;;4992157;28;20034;-76
2024/03/08 09:48:26;;;;;;;41.55;26.83;;;;;;;;;;4996296;28;20022;-76
2024/03/08 09:50:52;;;;;;;42.40;25.15;;;;;;;;;;4992140;28;20507;-76
2024/03/08 09:53:17;;;;;;;39.03;25.55;;;;;;;;;;4995183;28;20026;-76
2024/03/08 09:55:45;;;;;;;40.33;23.85;;;;;;;;;;4990888;28;20096;-76
2024/03/08 10:00:58;;;;;;;34.72;22.42;;;;;;;;;;4990696;28;20043;-77
2024/03/08 10:03:23;;;;;;;40.83;26.80;;;;;;;;;;4990604;28;20491;-76
2024/03/08 10:05:48;;;;;;;36.63;22.40;;;;;;;;;;4990806;28;20045;-76
2024/03/08 10:08:13;;;;;;;34.03;21.55;;;;;;;;;;4991222;28;20030;-77
2024/03/08 10:10:39;;;;;;;32.38;21.38;;;;;;;;;;4990509;28;20057;-76
2024/03/08 10:13:07;;;;;;;32.85;21.52;;;;;;;;;;4990355;28;20030;-77
2024/03/08 10:15:33;;;;;;;32.42;20.70;;;;;;;;;;4991682;28;20510;-76
2024/03/08 10:17:58;;;;;;;30.65;18.58;;;;;;;;;;4993134;28;20023;-77
2024/03/08 10:20:24;;;;;;;35.38;20.65;;;;;;;;;;4993674;28;20026;-77
2024/03/08 10:22:49;;;;;;;33.10;20.83;;;;;;;;;;4991671;28;20058;-76
2024/03/08 10:25:14;;;;;;;30.98;19.20;;;;;;;;;;4990445;28;20019;-77
2024/03/08 10:27:42;;;;;;;30.15;20.08;;;;;;;;;;4993927;28;20054;-76
2024/03/08 10:30:13;;;;;;;33.92;20.50;;;;;;;;;;4991616;28;20444;-77
2024/03/08 10:32:41;;;;;;;33.08;19.85;;;;;;;;;;4987971;28;20057;-77
2024/03/08 10:35:07;;;;;;;31.75;19.92;;;;;;;;;;4994068;28;20038;-77
2024/03/08 10:37:33;;;;;;;32.05;21.38;;;;;;;;;;4993385;28;20411;-76
2024/03/08 10:40:10;;;;;;;27.88;17.92;;;;;;;;;;4991340;28;20112;-77
2024/03/08 10:42:39;;;;;;;28.65;17.27;;;;;;;;;;4994488;28;20471;-77
2024/03/08 10:45:31;;;;;;;31.90;18.00;;;;;;;;;;4991031;28;20026;-77
2024/03/08 10:48:15;;;;;;;23.75;16.33;;;;;;;;;;4991448;28;20046;-76
2024/03/08 10:50:41;;;;;;;29.58;17.27;;;;;;;;;;5002956;28;20037;-77
2024/03/08 10:53:08;;;;;;;32.67;18.05;;;;;;;;;;4992607;28;20038;-76
2024/03/08 10:55:36;;;;;;;27.60;18.13;;;;;;;;;;4991102;28;20552;-76
2024/03/08 10:58:01;;;;;;;29.90;16.98;;;;;;;;;;4992160;28;20065;-76
2024/03/08 11:00:27;;;;;;;30.10;18.38;;;;;;;;;;5002554;28;20061;-76
2024/03/08 11:02:53;;;;;;;27.40;17.17;;;;;;;;;;4991003;28;20129;-76
2024/03/08 11:05:38;;;;;;;24.77;15.43;;;;;;;;;;4991131;28;20038;-76
2024/03/08 11:08:15;;;;;;;23.67;15.23;;;;;;;;;;4990871;28;20037;-77
2024/03/08 11:10:54;;;;;;;24.17;15.15;;;;;;;;;;4991137;28;20046;-77
2024/03/08 11:13:40;;;;;;;25.15;14.90;;;;;;;;;;4989857;28;20093;-77
2024/03/08 11:16:25;;;;;;;24.75;15.45;;;;;;;;;;4988870;28;20065;-77
2024/03/08 11:19:04;;;;;;;22.02;13.10;;;;;;;;;;4976720;28;20136;-76
2024/03/08 11:21:33;;;;;;;25.45;16.00;;;;;;;;;;4987721;28;20054;-76
2024/03/08 11:23:59;;;;;;;25.48;13.73;;;;;;;;;;4993483;28;20115;-77
2024/03/08 11:26:24;;;;;;;21.73;13.35;;;;;;;;;;4992695;28;20062;-77
2024/03/08 11:28:53;;;;;;;21.65;14.23;;;;;;;;;;4992834;28;20053;-76
2024/03/08 11:31:21;;;;;;;20.67;13.93;;;;;;;;;;4990713;28;20036;-76
2024/03/08 11:33:47;;;;;;;18.52;12.27;;;;;;;;;;4990739;28;20034;-77
2024/03/08 11:36:16;;;;;;;19.77;12.95;;;;;;;;;;4990801;28;20026;-76
2024/03/08 11:38:47;;;;;;;19.55;12.73;;;;;;;;;;4990427;28;20054;-76
2024/03/08 11:41:14;;;;;;;21.05;13.13;;;;;;;;;;4989126;28;20039;-76
2024/03/08 11:43:41;;;;;;;20.70;14.40;;;;;;;;;;4990365;28;20027;-76
2024/03/08 11:46:16;;;;;;;18.08;11.73;;;;;;;;;;4992913;28;20042;-77
2024/03/08 11:48:42;;;;;;;18.60;12.52;;;;;;;;;;4989298;28;20109;-76
2024/03/08 11:51:07;;;;;;;20.33;11.55;;;;;;;;;;4990525;28;20110;-76
2024/03/08 11:53:33;;;;;;;17.80;11.73;;;;;;;;;;4990304;28;20617;-77
2024/03/08 11:56:05;;;;;;;20.13;12.85;;;;;;;;;;4990198;28;20034;-77
2024/03/08 11:58:32;;;;;;;20.27;12.00;;;;;;;;;;4996406;28;20114;-76
2024/03/08 12:01:13;;;;;;;19.33;13.00;;;;;;;;;;4983007;28;20089;-77
2024/03/08 12:03:44;;;;;;;15.75;10.32;;;;;;;;;;4989981;28;20042;-76
2024/03/08 12:06:09;;;;;;;19.50;12.25;;;;;;;;;;4990246;28;20085;-76
2024/03/08 12:08:37;;;;;;;14.35;9.38;;;;;;;;;;4995222;28;20026;-76
2024/03/08 12:11:10;;;;;;;17.77;11.77;;;;;;;;;;4990625;28;20034;-77
2024/03/08 12:13:35;;;;;;;16.40;11.02;;;;;;;;;;4986932;28;20487;-76
2024/03/08 12:16:03;;;;;;;17.00;10.50;;;;;;;;;;4989182;28;20053;-76
2024/03/08 12:18:29;;;;;;;15.20;10.50;;;;;;;;;;4991275;28;20462;-76
2024/03/08 12:21:10;;;;;;;15.02;9.68;;;;;;;;;;4990825;28;20041;-76
2024/03/08 12:23:36;;;;;;;13.35;9.73;;;;;;;;;;4989419;28;20030;-76
2024/03/08 12:26:15;;;;;;;16.08;8.88;;;;;;;;;;4990056;28;20034;-76
2024/03/08 12:28:41;;;;;;;16.40;9.75;;;;;;;;;;4991769;28;20136;-76
2024/03/08 12:31:11;;;;;;;14.90;10.00;;;;;;;;;;4990124;28;20026;-76
2024/03/08 12:33:58;;;;;;;15.88;9.65;;;;;;;;;;4991307;28;20027;-76
2024/03/08 12:36:24;;;;;;;17.08;11.48;;;;;;;;;;4988559;28;20027;-76
2024/03/08 12:38:49;;;;;;;17.98;10.65;;;;;;;;;;4996573;28;20513;-76
2024/03/08 12:41:15;;;;;;;17.25;10.77;;;;;;;;;;4988852;28;20102;-77
2024/03/08 12:43:40;;;;;;;21.15;14.55;;;;;;;;;;4991506;28;20066;-76
2024/03/08 12:46:06;;;;;;;34.95;21.02;;;;;;;;;;4995293;28;20023;-77
2024/03/08 12:48:35;;;;;;;33.03;20.92;;;;;;;;;;4993890;28;20022;-76
2024/03/08 12:51:01;;;;;;;23.30;15.48;;;;;;;;;;4989997;28;20045;-76
2024/03/08 12:53:28;;;;;;;20.05;13.13;;;;;;;;;;4987615;28;20030;-76
2024/03/08 12:55:56;;;;;;;23.10;16.05;;;;;;;;;;4991709;28;20066;-76
2024/03/08 12:58:21;;;;;;;17.83;12.73;;;;;;;;;;5001925;28;20041;-76
2024/03/08 13:00:47;;;;;;;17.45;11.98;;;;;;;;;;4993134;28;20031;-76
2024/03/08 13:03:12;;;;;;;20.70;12.65;;;;;;;;;;4993358;28;20036;-76
2024/03/08 13:05:39;;;;;;;18.23;12.90;;;;;;;;;;4997758;28;20026;-76
2024/03/08 13:08:05;;;;;;;20.00;12.63;;;;;;;;;;4992298;28;20042;-76
2024/03/08 13:10:30;;;;;;;21.45;13.50;;;;;;;;;;4993221;28;20101;-76
2024/03/08 13:12:56;;;;;;;19.15;14.18;;;;;;;;;;4988635;28;20118;-76
2024/03/08 13:15:21;;;;;;;19.65;13.23;;;;;;;;;;4987311;28;20036;-76
2024/03/08 13:17:48;;;;;;;16.63;11.63;;;;;;;;;;4990939;28;20491;-76
2024/03/08 13:20:18;;;;;;;18.92;13.18;;;;;;;;;;4989337;28;20040;-76
2024/03/08 13:22:43;;;;;;;21.80;15.48;;;;;;;;;;4991463;28;20026;-76
2024/03/08 13:25:12;;;;;;;22.27;13.82;;;;;;;;;;4990165;28;20050;-77
2024/03/08 13:27:39;;;;;;;30.45;21.50;;;;;;;;;;4993599;28;20041;-76
2024/03/08 13:30:04;;;;;;;31.30;22.90;;;;;;;;;;4991243;28;20034;-77
2024/03/08 13:32:30;;;;;;;37.45;24.20;;;;;;;;;;4992415;28;20022;-77
2024/03/08 13:34:56;;;;;;;34.10;23.15;;;;;;;;;;4992325;28;20403;-76
2024/03/08 13:37:21;;;;;;;37.85;25.23;;;;;;;;;;4993132;28;20034;-76
2024/03/08 13:39:46;;;;;;;32.70;22.50;;;;;;;;;;4995981;28;20030;-77
2024/03/08 13:42:16;;;;;;;23.40;16.02;;;;;;;;;;4995686;28;20077;-77
2024/03/08 13:44:45;;;;;;;19.77;13.43;;;;;;;;;;4992342;28;20031;-77
2024/03/08 13:47:11;;;;;;;19.98;14.75;;;;;;;;;;4992339;28;20548;-77
2024/03/08 13:49:37;;;;;;;19.90;14.70;;;;;;;;;;4992991;28;20420;-77
2024/03/08 13:52:02;;;;;;;21.73;16.25;;;;;;;;;;4994284;28;20061;-77
2024/03/08 13:54:30;;;;;;;17.95;13.07;;;;;;;;;;4992482;28;20033;-77
2024/03/08 13:56:56;;;;;;;25.15;16.85;;;;;;;;;;4995251;28;20679;-77
2024/03/08 13:59:24;;;;;;;24.52;17.40;;;;;;;;;;4992353;28;20105;-76
2024/03/08 14:01:50;;;;;;;25.77;18.08;;;;;;;;;;4990818;28;20030;-77
2024/03/08 14:04:16;;;;;;;24.52;18.92;;;;;;;;;;4990490;28;20031;-76
2024/03/08 14:06:42;;;;;;;30.15;20.27;;;;;;;;;;4993024;28;20395;-77
2024/03/08 14:09:08;;;;;;;24.45;17.70;;;;;;;;;;4985885;28;20405;-76
2024/03/08 14:11:33;;;;;;;21.55;14.52;;;;;;;;;;4991171;28;20033;-77
2024/03/08 14:13:58;;;;;;;21.13;14.52;;;;;;;;;;4991991;28;20046;-77
2024/03/08 14:16:23;;;;;;;20.45;15.02;;;;;;;;;;4992282;28;20038;-77